createdAt,value
2022-11-12T00:00:23.383Z,13.50
2022-11-12T00:02:49.858Z,11.77
2022-11-12T00:05:16.277Z,13.65
2022-11-12T00:07:42.671Z,13.23
2022-11-12T00:10:09.435Z,13.27
2022-11-12T00:12:35.974Z,13.52
2022-11-12T00:15:02.460Z,14.18
2022-11-12T00:17:28.841Z,15.95
2022-11-12T00:19:55.279Z,14.98
2022-11-12T00:22:24.650Z,11.98
2022-11-12T00:24:51.036Z,11.90
2022-11-12T00:27:17.807Z,12.15
2022-11-12T00:29:44.572Z,10.07
2022-11-12T00:32:11.545Z,12.38
2022-11-12T00:34:37.973Z,12.25
2022-11-12T00:37:04.743Z,14.82
2022-11-12T00:39:31.277Z,12.25
2022-11-12T00:41:57.589Z,13.00
2022-11-12T00:44:24.015Z,13.43
2022-11-12T00:46:50.415Z,14.73
2022-11-12T00:49:17.096Z,10.73
2022-11-12T00:51:43.530Z,12.63
2022-11-12T00:54:10.160Z,13.65
2022-11-12T00:56:36.617Z,12.73
2022-11-12T00:59:02.991Z,12.32
2022-11-12T01:01:29.531Z,13.45
2022-11-12T01:03:57.579Z,14.90
2022-11-12T01:06:24.425Z,12.77
2022-11-12T01:08:50.966Z,12.77
2022-11-12T01:11:19.703Z,10.38
2022-11-12T01:13:46.903Z,10.60
2022-11-12T01:16:13.286Z,11.52
2022-11-12T01:18:39.943Z,12.93
2022-11-12T01:21:07.235Z,12.02
2022-11-12T01:23:37.316Z,14.20
2022-11-12T01:26:07.269Z,12.95
2022-11-12T01:28:33.710Z,12.00
2022-11-12T01:31:12.634Z,12.20
2022-11-12T01:33:39.410Z,11.65
2022-11-12T01:36:06.570Z,10.20
2022-11-12T01:38:36.709Z,12.68
2022-11-12T01:41:03.627Z,10.82
2022-11-12T01:43:30.027Z,12.02
2022-11-12T01:45:57.107Z,12.63
2022-11-12T01:48:28.592Z,12.60
2022-11-12T01:50:56.503Z,14.05
2022-11-12T01:53:33.151Z,12.25
2022-11-12T01:56:00.810Z,10.65
2022-11-12T01:58:29.893Z,10.27
2022-11-12T02:00:56.935Z,14.63
2022-11-12T02:03:24.814Z,13.05
2022-11-12T02:06:08.073Z,12.13
2022-11-12T02:08:35.146Z,9.13
2022-11-12T02:11:12.499Z,13.90
2022-11-12T02:13:57.302Z,11.55
2022-11-12T02:16:32.753Z,8.88
2022-11-12T02:18:59.361Z,9.48
2022-11-12T02:21:26.128Z,10.07
2022-11-12T02:24:04.606Z,11.38
2022-11-12T02:26:35.542Z,9.88
2022-11-12T02:29:01.967Z,8.63
2022-11-12T02:31:28.383Z,11.07
2022-11-12T02:33:54.992Z,11.98
2022-11-12T02:36:21.770Z,9.82
2022-11-12T02:38:48.158Z,9.57
2022-11-12T02:41:14.529Z,12.75
2022-11-12T02:43:41.164Z,9.27
2022-11-12T02:46:08.102Z,9.10
2022-11-12T02:48:34.502Z,13.60
2022-11-12T02:51:01.211Z,9.32
2022-11-12T02:53:27.584Z,8.40
2022-11-12T02:55:53.930Z,9.77
2022-11-12T02:58:22.753Z,12.50
2022-11-12T03:00:49.661Z,11.20
2022-11-12T03:03:16.188Z,9.52
2022-11-12T03:05:42.933Z,9.82
2022-11-12T03:08:09.771Z,10.32
2022-11-12T03:10:40.126Z,8.18
2022-11-12T03:13:06.535Z,9.50
2022-11-12T03:15:33.105Z,10.98
2022-11-12T03:17:59.796Z,9.25
2022-11-12T03:20:26.829Z,10.35
2022-11-12T03:23:00.963Z,8.57
2022-11-12T03:25:28.077Z,10.23
2022-11-12T03:28:01.050Z,8.73
2022-11-12T03:30:28.244Z,11.48
2022-11-12T03:32:54.621Z,9.23
2022-11-12T03:35:21.441Z,8.73
2022-11-12T03:37:48.064Z,8.13
2022-11-12T03:40:14.534Z,9.48
2022-11-12T03:42:48.001Z,11.38
2022-11-12T03:45:14.807Z,10.68
2022-11-12T03:47:45.177Z,7.82
2022-11-12T03:50:12.139Z,8.38
2022-11-12T03:52:38.566Z,8.70
2022-11-12T03:55:05.882Z,11.65
2022-11-12T03:57:32.377Z,8.75
2022-11-12T03:59:58.762Z,8.13
2022-11-12T04:02:26.722Z,9.73
2022-11-12T04:05:13.049Z,8.57
2022-11-12T04:07:57.969Z,8.15
2022-11-12T04:10:24.572Z,8.57
2022-11-12T04:13:09.839Z,7.90
2022-11-12T04:15:36.224Z,10.55
2022-11-12T04:18:21.136Z,8.65
2022-11-12T04:21:06.887Z,12.60
2022-11-12T04:23:33.295Z,7.80
2022-11-12T04:26:18.340Z,6.40
2022-11-12T04:29:04.768Z,7.40
2022-11-12T04:31:31.239Z,5.95
2022-11-12T04:34:17.590Z,7.15
2022-11-12T04:36:43.966Z,7.88
2022-11-12T04:39:10.327Z,9.63
2022-11-12T04:41:55.344Z,7.75
2022-11-12T04:44:40.270Z,7.97
2022-11-12T04:47:06.831Z,8.27
2022-11-12T04:49:33.295Z,7.65
2022-11-12T04:52:05.790Z,11.10
2022-11-12T04:54:33.147Z,6.18
2022-11-12T04:57:00.062Z,7.85
2022-11-12T04:59:26.574Z,8.27
2022-11-12T05:01:52.953Z,8.10
2022-11-12T05:04:19.439Z,7.35
2022-11-12T05:06:52.067Z,6.90
2022-11-12T05:09:22.205Z,6.20
2022-11-12T05:11:48.650Z,8.90
2022-11-12T05:14:14.979Z,8.73
2022-11-12T05:16:41.464Z,7.90
2022-11-12T05:19:07.813Z,6.63
2022-11-12T05:21:52.762Z,7.60
2022-11-12T05:24:40.377Z,5.72
2022-11-12T05:27:07.180Z,9.38
2022-11-12T05:29:33.640Z,6.45
2022-11-12T05:32:00.497Z,6.93
2022-11-12T05:34:26.840Z,6.93
2022-11-12T05:36:53.481Z,7.28
2022-11-12T05:39:20.045Z,6.93
2022-11-12T05:42:11.420Z,6.20
2022-11-12T05:44:32.941Z,7.40
2022-11-12T05:46:59.486Z,5.68
2022-11-12T05:49:25.887Z,5.68
2022-11-12T05:51:52.480Z,6.97
2022-11-12T05:54:18.902Z,7.95
2022-11-12T05:56:45.575Z,6.03
2022-11-12T05:59:12.973Z,5.43
2022-11-12T06:01:44.061Z,6.20
2022-11-12T06:04:11.508Z,5.20
2022-11-12T06:06:38.412Z,6.28
2022-11-12T06:09:05.467Z,7.00
2022-11-12T06:11:32.147Z,10.50
2022-11-12T06:13:58.506Z,7.25
2022-11-12T06:16:24.941Z,10.20
2022-11-12T06:18:51.400Z,8.93
2022-11-12T06:21:22.606Z,6.53
2022-11-12T06:23:50.422Z,8.77
2022-11-12T06:26:16.800Z,9.15
2022-11-12T06:28:43.269Z,8.30
2022-11-12T06:31:09.635Z,8.10
2022-11-12T06:33:36.087Z,7.97
2022-11-12T06:36:06.652Z,9.55
2022-11-12T06:38:34.129Z,6.93
2022-11-12T06:41:00.608Z,9.85
2022-11-12T06:43:28.692Z,7.60
2022-11-12T06:45:58.268Z,8.40
2022-11-12T06:48:25.024Z,8.38
2022-11-12T06:50:51.648Z,8.65
2022-11-12T06:53:17.999Z,12.07
2022-11-12T06:55:44.550Z,8.73
2022-11-12T06:58:10.915Z,6.63
2022-11-12T07:00:37.333Z,12.77
2022-11-12T07:03:10.255Z,6.97
2022-11-12T07:05:39.687Z,10.55
2022-11-12T07:08:06.199Z,6.72
2022-11-12T07:10:32.621Z,6.20
2022-11-12T07:12:59.192Z,6.35
2022-11-12T07:15:25.631Z,7.65
2022-11-12T07:17:52.249Z,6.45
2022-11-12T07:20:18.637Z,6.60
2022-11-12T07:22:45.160Z,5.95
2022-11-12T07:25:11.602Z,7.88
2022-11-12T07:27:38.010Z,6.97
2022-11-12T07:30:04.736Z,8.93
2022-11-12T07:32:31.154Z,7.95
2022-11-12T07:34:57.629Z,11.30
2022-11-12T07:37:24.004Z,8.95
2022-11-12T07:39:50.656Z,11.63
2022-11-12T07:42:17.058Z,8.25
2022-11-12T07:44:43.419Z,7.13
2022-11-12T07:47:09.846Z,5.07
2022-11-12T07:49:36.249Z,7.00
2022-11-12T07:52:02.642Z,7.15
2022-11-12T07:54:29.042Z,10.27
2022-11-12T07:56:55.397Z,10.20
2022-11-12T07:59:21.810Z,8.75
2022-11-12T08:01:48.274Z,6.55
2022-11-12T08:04:14.758Z,6.03
2022-11-12T08:06:41.240Z,6.03
2022-11-12T08:09:08.334Z,5.97
2022-11-12T08:11:34.744Z,6.18
2022-11-12T08:14:01.497Z,5.55
2022-11-12T08:16:28.036Z,5.85
2022-11-12T08:18:54.381Z,14.77
2022-11-12T08:21:20.731Z,22.95
2022-11-12T08:23:47.216Z,15.88
2022-11-12T08:26:14.997Z,8.85
2022-11-12T08:28:41.426Z,11.82
2022-11-12T08:31:10.039Z,10.20
2022-11-12T08:33:36.577Z,8.65
2022-11-12T08:36:06.405Z,5.78
2022-11-12T08:38:35.873Z,6.20
2022-11-12T08:41:02.735Z,7.45
2022-11-12T08:43:29.195Z,5.28
2022-11-12T08:45:57.491Z,5.50
2022-11-12T08:48:24.013Z,5.53
2022-11-12T08:50:50.474Z,6.85
2022-11-12T08:53:16.892Z,5.97
2022-11-12T08:55:43.340Z,4.78
2022-11-12T08:58:10.887Z,25.45
2022-11-12T09:00:38.884Z,30.77
2022-11-12T09:03:06.577Z,33.33
2022-11-12T09:05:35.475Z,16.27
2022-11-12T09:08:03.411Z,19.80
2022-11-12T09:10:30.079Z,20.98
2022-11-12T09:12:56.488Z,17.27
2022-11-12T09:15:37.595Z,10.95
2022-11-12T09:18:05.887Z,11.23
2022-11-12T09:20:32.596Z,7.93
2022-11-12T09:23:02.979Z,7.00
2022-11-12T09:25:29.748Z,7.40
2022-11-12T09:27:56.194Z,5.85
2022-11-12T09:30:23.157Z,4.72
2022-11-12T09:32:49.655Z,4.47
2022-11-12T09:35:16.175Z,6.88
2022-11-12T09:37:42.605Z,6.70
2022-11-12T09:40:15.542Z,9.00
2022-11-12T09:42:44.833Z,6.90
2022-11-12T09:45:18.561Z,3.97
2022-11-12T09:47:47.150Z,4.25
2022-11-12T09:50:20.335Z,3.88
2022-11-12T09:52:48.486Z,4.45
2022-11-12T09:55:15.060Z,4.43
2022-11-12T09:57:41.414Z,6.82
2022-11-12T10:00:25.981Z,6.68
2022-11-12T10:02:52.403Z,3.78
2022-11-12T10:05:21.765Z,4.25
2022-11-12T10:07:57.683Z,5.30
2022-11-12T10:10:24.127Z,7.25
2022-11-12T10:12:50.460Z,5.10
2022-11-12T10:15:38.268Z,4.95
2022-11-12T10:18:16.217Z,5.75
2022-11-12T10:20:51.479Z,5.72
2022-11-12T10:23:20.990Z,4.82
2022-11-12T10:25:49.247Z,4.63
2022-11-12T10:28:21.685Z,3.40
2022-11-12T10:30:48.079Z,4.72
2022-11-12T10:33:15.092Z,5.32
2022-11-12T10:35:41.638Z,5.20
2022-11-12T10:38:12.580Z,4.90
2022-11-12T10:40:42.122Z,5.35
2022-11-12T10:43:17.796Z,4.13
2022-11-12T10:45:44.855Z,4.50
2022-11-12T10:48:26.811Z,6.30
2022-11-12T10:50:54.097Z,4.25
2022-11-12T10:53:32.585Z,6.85
2022-11-12T10:56:03.840Z,5.95
2022-11-12T10:58:30.406Z,6.40
2022-11-12T11:01:01.303Z,4.45
2022-11-12T11:03:27.636Z,3.33
2022-11-12T11:05:54.051Z,4.65
2022-11-12T11:08:38.247Z,4.05
2022-11-12T11:11:17.074Z,2.70
2022-11-12T11:13:44.292Z,4.28
2022-11-12T11:16:13.052Z,4.20
2022-11-12T11:18:41.234Z,4.38
2022-11-12T11:21:13.415Z,5.85
2022-11-12T11:24:02.707Z,4.22
2022-11-12T11:27:01.712Z,3.47
2022-11-12T11:29:30.875Z,2.97
2022-11-12T11:32:15.679Z,3.97
2022-11-12T11:34:54.597Z,5.72
2022-11-12T11:37:26.835Z,7.28
2022-11-12T11:40:02.745Z,6.38
2022-11-12T11:42:29.044Z,4.82
2022-11-12T11:45:14.273Z,4.60
2022-11-12T11:48:00.474Z,3.58
2022-11-12T11:50:28.255Z,4.32
2022-11-12T11:53:15.501Z,5.03
2022-11-12T11:55:44.948Z,5.85
2022-11-12T11:58:11.359Z,5.00
2022-11-12T12:01:02.654Z,5.30
2022-11-12T12:03:37.757Z,6.55
2022-11-12T12:06:24.897Z,4.72
2022-11-12T12:09:06.731Z,5.30
2022-11-12T12:11:36.440Z,3.95
2022-11-12T12:14:26.236Z,4.60
2022-11-12T12:17:03.395Z,3.20
2022-11-12T12:19:48.642Z,4.75
2022-11-12T12:22:35.903Z,4.60
2022-11-12T12:25:12.041Z,3.92
2022-11-12T12:27:43.380Z,3.13
2022-11-12T12:30:29.358Z,3.35
2022-11-12T12:35:28.194Z,3.58
2022-11-12T12:38:11.954Z,5.50
2022-11-12T12:40:43.513Z,4.40
2022-11-12T12:43:12.582Z,5.30
2022-11-12T12:45:46.248Z,4.38
2022-11-12T12:48:33.186Z,4.00
2022-11-12T12:50:59.594Z,4.78
2022-11-12T12:53:29.137Z,3.67
2022-11-12T12:56:18.793Z,4.47
2022-11-12T12:58:48.611Z,3.47
2022-11-12T13:01:21.324Z,2.95
2022-11-12T13:04:03.236Z,4.93
2022-11-12T13:06:31.121Z,3.38
2022-11-12T13:09:00.491Z,1.95
2022-11-12T13:12:05.003Z,2.63
2022-11-12T13:14:31.366Z,3.05
2022-11-12T13:17:00.787Z,2.47
2022-11-12T13:19:28.179Z,2.85
2022-11-12T13:22:13.380Z,1.70
2022-11-12T13:24:58.426Z,2.60
2022-11-12T13:27:40.350Z,1.85
2022-11-12T13:30:12.985Z,3.35
2022-11-12T13:32:44.558Z,4.10
2022-11-12T13:35:20.846Z,10.60
2022-11-12T13:38:04.617Z,17.55
2022-11-12T13:40:30.999Z,10.95
2022-11-12T13:43:09.947Z,14.65
2022-11-12T13:45:57.148Z,16.05
2022-11-12T13:48:23.665Z,10.40
2022-11-12T13:50:55.408Z,11.88
2022-11-12T13:53:26.348Z,10.18
2022-11-12T13:55:53.524Z,9.18
2022-11-12T13:58:27.970Z,10.40
2022-11-12T14:00:55.739Z,10.02
2022-11-12T14:03:22.842Z,12.80
2022-11-12T14:05:50.215Z,9.55
2022-11-12T14:08:45.955Z,8.57
2022-11-12T14:11:18.534Z,9.97
2022-11-12T14:13:51.052Z,11.38
2022-11-12T14:16:37.745Z,9.82
2022-11-12T14:19:23.088Z,8.70
2022-11-12T14:22:10.969Z,7.65
2022-11-12T14:24:37.366Z,4.93
2022-11-12T14:27:03.861Z,3.75
2022-11-12T14:29:35.312Z,4.50
2022-11-12T14:32:03.052Z,4.30
2022-11-12T14:34:29.366Z,10.88
2022-11-12T14:36:57.425Z,7.05
2022-11-12T14:39:25.709Z,8.00
2022-11-12T14:41:52.387Z,7.22
2022-11-12T14:44:21.332Z,7.78
2022-11-12T14:46:52.051Z,7.53
2022-11-12T14:49:21.603Z,8.85
2022-11-12T14:51:50.651Z,8.60
2022-11-12T14:54:25.784Z,4.25
2022-11-12T14:56:52.328Z,6.65
2022-11-12T14:59:18.815Z,6.35
2022-11-12T15:02:30.183Z,6.93
2022-11-12T15:04:59.133Z,4.00
2022-11-12T15:07:25.696Z,5.82
2022-11-12T15:09:52.154Z,5.40
2022-11-12T15:12:26.141Z,4.75
2022-11-12T15:14:53.278Z,5.25
2022-11-12T15:17:30.916Z,5.15
2022-11-12T15:20:12.579Z,5.50
2022-11-12T15:22:39.142Z,6.53
2022-11-12T15:25:13.148Z,4.18
2022-11-12T15:27:43.287Z,3.97
2022-11-12T15:30:20.634Z,5.55
2022-11-12T15:32:47.227Z,4.78
2022-11-12T15:35:43.837Z,7.32
2022-11-12T15:38:13.157Z,7.90
2022-11-12T15:40:45.626Z,5.53
2022-11-12T15:43:17.281Z,8.85
2022-11-12T15:45:43.808Z,6.38
2022-11-12T15:48:13.097Z,6.20
2022-11-12T15:50:39.563Z,5.72
2022-11-12T15:53:05.984Z,9.85
2022-11-12T15:55:32.821Z,7.82
2022-11-12T15:57:59.280Z,6.38
2022-11-12T16:00:30.526Z,6.68
2022-11-12T16:02:59.378Z,8.77
2022-11-12T16:05:26.198Z,9.63
2022-11-12T16:07:52.566Z,7.68
2022-11-12T16:10:19.368Z,9.38
2022-11-12T16:12:47.439Z,6.05
2022-11-12T16:15:14.698Z,7.50
2022-11-12T16:17:41.141Z,8.25
2022-11-12T16:20:18.668Z,6.45
2022-11-12T16:22:45.875Z,10.57
2022-11-12T16:25:12.263Z,6.50
2022-11-12T16:27:39.437Z,16.27
2022-11-12T16:30:22.288Z,8.70
2022-11-12T16:32:48.809Z,10.25
2022-11-12T16:35:16.379Z,6.80
2022-11-12T16:37:43.435Z,7.80
2022-11-12T16:40:13.216Z,6.30
2022-11-12T16:42:45.729Z,7.70
2022-11-12T16:45:13.158Z,9.02
2022-11-12T16:47:47.196Z,7.82
2022-11-12T16:50:14.806Z,11.80
2022-11-12T16:52:41.449Z,13.15
2022-11-12T16:55:08.037Z,9.35
2022-11-12T16:57:34.505Z,6.90
2022-11-12T17:00:01.021Z,8.85
2022-11-12T17:02:27.463Z,9.13
2022-11-12T17:04:53.881Z,7.55
2022-11-12T17:07:20.323Z,11.70
2022-11-12T17:09:46.728Z,8.88
2022-11-12T17:12:13.430Z,7.80
2022-11-12T17:14:39.796Z,6.90
2022-11-12T17:17:06.207Z,8.15
2022-11-12T17:19:32.612Z,14.02
2022-11-12T17:21:59.018Z,11.48
2022-11-12T17:24:26.285Z,9.77
2022-11-12T17:26:52.792Z,10.80
2022-11-12T17:29:19.239Z,12.38
2022-11-12T17:31:51.716Z,11.73
2022-11-12T17:34:18.159Z,12.30
2022-11-12T17:36:44.627Z,11.20
2022-11-12T17:39:12.259Z,14.10
2022-11-12T17:41:38.761Z,15.45
2022-11-12T17:44:05.528Z,22.00
2022-11-12T17:46:36.136Z,19.35
2022-11-12T17:49:02.553Z,17.17
2022-11-12T17:51:29.909Z,16.10
2022-11-12T17:53:56.325Z,18.75
2022-11-12T17:56:23.180Z,17.67
2022-11-12T17:58:50.274Z,17.55
2022-11-12T18:01:24.004Z,15.07
2022-11-12T18:03:52.193Z,13.05
2022-11-12T18:06:21.656Z,17.23
2022-11-12T18:08:51.860Z,21.60
2022-11-12T18:11:18.269Z,18.50
2022-11-12T18:13:44.668Z,16.08
2022-11-12T18:16:22.005Z,22.85
2022-11-12T18:18:48.768Z,19.25
2022-11-12T18:21:15.452Z,21.10
2022-11-12T18:23:43.697Z,18.58
2022-11-12T18:26:13.867Z,18.35
2022-11-12T18:28:40.265Z,21.77
2022-11-12T18:31:07.255Z,24.48
2022-11-12T18:33:34.280Z,26.02
2022-11-12T18:36:04.705Z,26.10
2022-11-12T18:38:35.270Z,20.83
2022-11-12T18:41:06.138Z,21.60
2022-11-12T18:43:32.973Z,30.73
2022-11-12T18:46:00.426Z,32.92
2022-11-12T18:48:27.846Z,30.70
2022-11-12T18:51:01.909Z,36.00
2022-11-12T18:53:29.123Z,29.17
2022-11-12T18:55:56.632Z,26.65
2022-11-12T18:58:23.042Z,22.92
2022-11-12T19:00:49.532Z,23.25
2022-11-12T19:03:15.991Z,28.77
2022-11-12T19:05:42.640Z,25.42
2022-11-12T19:08:09.121Z,23.20
2022-11-12T19:10:35.665Z,27.92
2022-11-12T19:13:04.070Z,29.55
2022-11-12T19:15:33.969Z,27.55
2022-11-12T19:18:01.239Z,28.95
2022-11-12T19:20:28.063Z,30.55
2022-11-12T19:22:54.547Z,31.38
2022-11-12T19:25:22.007Z,43.10
2022-11-12T19:27:48.686Z,40.85
2022-11-12T19:30:15.323Z,43.03
2022-11-12T19:32:41.795Z,42.28
2022-11-12T19:35:08.443Z,41.42
2022-11-12T19:37:34.905Z,37.85
2022-11-12T19:40:01.354Z,38.42
2022-11-12T19:42:27.732Z,38.75
2022-11-12T19:44:54.144Z,36.47
2022-11-12T19:47:20.488Z,37.65
2022-11-12T19:49:46.867Z,29.35
2022-11-12T19:52:13.468Z,32.90
2022-11-12T19:54:39.921Z,37.83
2022-11-12T19:57:06.299Z,34.67
2022-11-12T19:59:32.652Z,33.53
2022-11-12T20:01:59.071Z,34.83
2022-11-12T20:04:25.433Z,30.83
2022-11-12T20:06:51.897Z,39.42
2022-11-12T20:09:18.336Z,38.10
2022-11-12T20:11:44.714Z,35.25
2022-11-12T20:14:11.174Z,38.13
2022-11-12T20:16:38.958Z,37.20
2022-11-12T20:19:05.357Z,37.55
2022-11-12T20:21:31.811Z,37.20
2022-11-12T20:23:58.263Z,33.90
2022-11-12T20:26:26.739Z,27.92
2022-11-12T20:28:53.454Z,28.70
2022-11-12T20:31:20.754Z,28.33
2022-11-12T20:33:49.635Z,26.88
2022-11-12T20:36:17.566Z,30.42
2022-11-12T20:38:44.478Z,20.42
2022-11-12T20:41:15.127Z,27.88
2022-11-12T20:43:41.793Z,28.65
2022-11-12T20:46:08.167Z,30.98
2022-11-12T20:48:37.780Z,24.58
2022-11-12T20:51:24.993Z,22.45
2022-11-12T20:53:58.944Z,30.83
2022-11-12T20:56:27.511Z,34.08
2022-11-12T20:58:54.289Z,28.80
2022-11-12T21:01:22.133Z,34.15
2022-11-12T21:03:48.592Z,34.05
2022-11-12T21:06:16.249Z,36.22
2022-11-12T21:08:43.689Z,34.50
2022-11-12T21:11:11.719Z,35.78
2022-11-12T21:13:38.761Z,31.63
2022-11-12T21:16:05.635Z,33.70
2022-11-12T21:18:32.398Z,33.08
2022-11-12T21:21:07.788Z,28.48
2022-11-12T21:23:35.499Z,30.88
2022-11-12T21:26:06.119Z,35.08
2022-11-12T21:28:35.113Z,39.33
2022-11-12T21:31:03.059Z,34.70
2022-11-12T21:33:29.431Z,31.48
2022-11-12T21:35:55.880Z,31.38
2022-11-12T21:38:22.990Z,41.92
2022-11-12T21:40:50.539Z,44.33
2022-11-12T21:43:16.940Z,35.80
2022-11-12T21:45:46.989Z,30.85
2022-11-12T21:48:13.345Z,31.80
2022-11-12T21:50:39.777Z,26.25
2022-11-12T21:53:06.155Z,29.35
2022-11-12T21:55:32.551Z,25.65
2022-11-12T21:57:58.919Z,25.92
2022-11-12T22:00:41.389Z,32.00
2022-11-12T22:03:08.647Z,29.90
2022-11-12T22:05:37.825Z,26.15
2022-11-12T22:08:04.314Z,31.95
2022-11-12T22:10:31.256Z,27.75
2022-11-12T22:13:26.531Z,30.23
2022-11-12T22:15:44.060Z,31.17
2022-11-12T22:18:10.450Z,27.63
2022-11-12T22:20:36.787Z,30.35
2022-11-12T22:23:03.156Z,30.90
2022-11-12T22:25:29.564Z,31.02
2022-11-12T22:27:55.912Z,29.90
2022-11-12T22:30:22.239Z,28.13
2022-11-12T22:32:48.623Z,25.02
2022-11-12T22:35:15.092Z,21.33
2022-11-12T22:37:41.988Z,24.20
2022-11-12T22:40:13.186Z,26.65
2022-11-12T22:42:40.015Z,24.67
2022-11-12T22:45:06.762Z,24.92
2022-11-12T22:47:33.308Z,24.52
2022-11-12T22:49:59.662Z,27.33
2022-11-12T22:52:26.056Z,26.38
2022-11-12T22:54:52.467Z,29.33
2022-11-12T22:57:18.842Z,24.52
2022-11-12T22:59:45.208Z,27.58
2022-11-12T23:02:11.587Z,28.65
2022-11-12T23:04:38.125Z,29.60
2022-11-12T23:07:04.761Z,28.80
2022-11-12T23:09:31.176Z,28.73
2022-11-12T23:11:57.514Z,36.30
2022-11-12T23:14:24.124Z,28.70
2022-11-12T23:16:50.448Z,27.85
2022-11-12T23:19:16.787Z,26.83
2022-11-12T23:21:43.495Z,28.67
2022-11-12T23:24:09.892Z,28.35
2022-11-12T23:26:36.259Z,27.38
2022-11-12T23:29:02.987Z,27.52
2022-11-12T23:31:29.978Z,28.38
2022-11-12T23:33:57.293Z,27.40
2022-11-12T23:36:24.435Z,28.02
2022-11-12T23:38:51.386Z,29.83
2022-11-12T23:41:19.248Z,30.92
2022-11-12T23:43:45.744Z,30.48
2022-11-12T23:46:12.199Z,29.50
2022-11-12T23:48:38.585Z,28.95
2022-11-12T23:51:06.299Z,29.80
2022-11-12T23:53:33.581Z,33.25
2022-11-12T23:56:00.481Z,28.48
2022-11-12T23:58:27.287Z,34.92
